sensor_id;sensor_type;location;lat;lon;timestamp;pressure;altitude;pressure_sealevel;temperature;humidity
54329;BME280;40710;51.120;13.136;2023-11-19T00:00:09;99321.38;;;9.31;60.09
54329;BME280;40710;51.120;13.136;2023-11-19T00:02:39;99327.88;;;8.27;62.21
54329;BME280;40710;51.120;13.136;2023-11-19T00:05:03;99334.41;;;7.98;63.00
54329;BME280;40710;51.120;13.136;2023-11-19T00:07:28;99329.00;;;8.22;63.25
54329;BME280;40710;51.120;13.136;2023-11-19T00:09:53;99312.66;;;8.56;62.37
54329;BME280;40710;51.120;13.136;2023-11-19T00:12:19;99314.34;;;8.18;62.66
54329;BME280;40710;51.120;13.136;2023-11-19T00:14:43;99301.00;;;8.82;60.82
54329;BME280;40710;51.120;13.136;2023-11-19T00:17:08;99310.34;;;8.29;63.35
54329;BME280;40710;51.120;13.136;2023-11-19T00:19:33;99303.50;;;7.65;64.08
54329;BME280;40710;51.120;13.136;2023-11-19T00:21:57;99284.44;;;8.23;62.67
54329;BME280;40710;51.120;13.136;2023-11-19T00:24:26;99295.91;;;8.00;62.69
54329;BME280;40710;51.120;13.136;2023-11-19T00:26:51;99285.34;;;8.81;61.57
54329;BME280;40710;51.120;13.136;2023-11-19T00:29:15;99293.38;;;8.38;62.14
54329;BME280;40710;51.120;13.136;2023-11-19T00:31:40;99275.94;;;8.77;60.47
54329;BME280;40710;51.120;13.136;2023-11-19T00:34:04;99273.44;;;8.93;61.30
54329;BME280;40710;51.120;13.136;2023-11-19T00:36:30;99269.66;;;8.41;62.32
54329;BME280;40710;51.120;13.136;2023-11-19T00:38:55;99266.06;;;9.36;59.84
54329;BME280;40710;51.120;13.136;2023-11-19T00:41:20;99272.88;;;9.40;59.84
54329;BME280;40710;51.120;13.136;2023-11-19T00:43:45;99267.19;;;8.57;61.71
54329;BME280;40710;51.120;13.136;2023-11-19T00:46:09;99258.50;;;7.98;62.83
54329;BME280;40710;51.120;13.136;2023-11-19T00:48:35;99251.31;;;8.41;61.29
54329;BME280;40710;51.120;13.136;2023-11-19T00:50:59;99236.72;;;8.93;60.68
54329;BME280;40710;51.120;13.136;2023-11-19T00:53:24;99214.81;;;8.94;60.81
54329;BME280;40710;51.120;13.136;2023-11-19T00:55:49;99206.16;;;9.28;58.66
54329;BME280;40710;51.120;13.136;2023-11-19T00:58:13;99214.69;;;8.22;62.14
54329;BME280;40710;51.120;13.136;2023-11-19T01:00:38;99189.84;;;9.90;58.07
54329;BME280;40710;51.120;13.136;2023-11-19T01:03:02;99218.97;;;7.44;63.93
54329;BME280;40710;51.120;13.136;2023-11-19T01:05:27;99220.22;;;7.56;64.45
54329;BME280;40710;51.120;13.136;2023-11-19T01:07:52;99208.09;;;8.13;63.55
54329;BME280;40710;51.120;13.136;2023-11-19T01:10:18;99199.88;;;8.02;63.59
54329;BME280;40710;51.120;13.136;2023-11-19T01:12:43;99190.78;;;8.49;62.40
54329;BME280;40710;51.120;13.136;2023-11-19T01:15:08;99186.16;;;8.35;63.00
54329;BME280;40710;51.120;13.136;2023-11-19T01:17:32;99183.44;;;7.80;63.45
54329;BME280;40710;51.120;13.136;2023-11-19T01:19:57;99158.19;;;8.17;62.68
54329;BME280;40710;51.120;13.136;2023-11-19T01:22:21;99143.31;;;8.55;61.47
54329;BME280;40710;51.120;13.136;2023-11-19T01:24:47;99146.75;;;8.38;62.10
54329;BME280;40710;51.120;13.136;2023-11-19T01:27:11;99151.25;;;8.54;61.53
54329;BME280;40710;51.120;13.136;2023-11-19T01:29:36;99143.19;;;8.39;61.37
54329;BME280;40710;51.120;13.136;2023-11-19T01:32:02;99145.84;;;8.01;62.60
54329;BME280;40710;51.120;13.136;2023-11-19T01:34:27;99129.97;;;7.85;64.38
54329;BME280;40710;51.120;13.136;2023-11-19T01:36:51;99128.81;;;9.02;61.82
54329;BME280;40710;51.120;13.136;2023-11-19T01:39:16;99126.47;;;8.96;61.39
54329;BME280;40710;51.120;13.136;2023-11-19T01:41:41;99136.09;;;8.05;65.31
54329;BME280;40710;51.120;13.136;2023-11-19T01:44:06;99129.97;;;7.85;64.83
54329;BME280;40710;51.120;13.136;2023-11-19T01:46:31;99118.81;;;8.01;65.45
54329;BME280;40710;51.120;13.136;2023-11-19T01:48:57;99113.63;;;8.18;65.11
54329;BME280;40710;51.120;13.136;2023-11-19T01:51:22;99101.25;;;8.22;65.32
54329;BME280;40710;51.120;13.136;2023-11-19T01:53:48;99093.22;;;8.80;64.57
54329;BME280;40710;51.120;13.136;2023-11-19T01:56:15;99092.66;;;8.37;64.93
54329;BME280;40710;51.120;13.136;2023-11-19T01:58:41;99085.94;;;8.50;64.17
54329;BME280;40710;51.120;13.136;2023-11-19T02:01:07;99076.16;;;8.18;65.26
54329;BME280;40710;51.120;13.136;2023-11-19T02:03:32;99065.31;;;7.89;66.03
54329;BME280;40710;51.120;13.136;2023-11-19T02:05:57;99064.59;;;7.66;67.67
54329;BME280;40710;51.120;13.136;2023-11-19T02:08:22;99050.31;;;7.54;68.02
54329;BME280;40710;51.120;13.136;2023-11-19T02:10:47;99021.22;;;7.99;67.03
54329;BME280;40710;51.120;13.136;2023-11-19T02:13:11;99016.81;;;7.44;67.57
54329;BME280;40710;51.120;13.136;2023-11-19T02:15:38;99015.25;;;7.58;67.61
54329;BME280;40710;51.120;13.136;2023-11-19T02:18:26;99009.31;;;8.10;66.69
54329;BME280;40710;51.120;13.136;2023-11-19T02:20:54;99000.84;;;7.50;67.63
54329;BME280;40710;51.120;13.136;2023-11-19T02:23:20;99012.31;;;7.47;68.47
54329;BME280;40710;51.120;13.136;2023-11-19T02:25:57;99011.28;;;7.69;68.32
54329;BME280;40710;51.120;13.136;2023-11-19T02:28:24;99011.16;;;7.72;68.39
54329;BME280;40710;51.120;13.136;2023-11-19T02:30:48;98989.09;;;8.31;67.08
54329;BME280;40710;51.120;13.136;2023-11-19T02:33:13;98992.09;;;7.51;68.77
54329;BME280;40710;51.120;13.136;2023-11-19T02:35:39;98993.91;;;7.68;68.55
54329;BME280;40710;51.120;13.136;2023-11-19T02:38:05;98979.78;;;8.26;66.58
54329;BME280;40710;51.120;13.136;2023-11-19T02:40:31;98973.09;;;8.88;64.52
54329;BME280;40710;51.120;13.136;2023-11-19T02:42:55;98990.13;;;8.46;66.82
54329;BME280;40710;51.120;13.136;2023-11-19T02:45:20;98987.63;;;8.08;67.79
54329;BME280;40710;51.120;13.136;2023-11-19T02:47:46;98974.66;;;7.88;68.45
54329;BME280;40710;51.120;13.136;2023-11-19T02:50:11;98966.69;;;8.08;67.42
54329;BME280;40710;51.120;13.136;2023-11-19T02:52:40;98953.75;;;8.05;68.63
54329;BME280;40710;51.120;13.136;2023-11-19T02:55:05;98955.34;;;8.25;68.16
54329;BME280;40710;51.120;13.136;2023-11-19T02:57:33;98935.34;;;8.59;67.82
54329;BME280;40710;51.120;13.136;2023-11-19T02:59:58;98932.81;;;8.58;67.80
54329;BME280;40710;51.120;13.136;2023-11-19T03:02:23;98935.28;;;8.08;69.18
54329;BME280;40710;51.120;13.136;2023-11-19T03:04:49;98917.31;;;8.18;69.52
54329;BME280;40710;51.120;13.136;2023-11-19T03:07:13;98916.25;;;7.87;70.18
54329;BME280;40710;51.120;13.136;2023-11-19T03:09:38;98900.56;;;8.22;68.75
54329;BME280;40710;51.120;13.136;2023-11-19T03:12:05;98895.41;;;8.21;68.88
54329;BME280;40710;51.120;13.136;2023-11-19T03:14:33;98911.13;;;7.67;70.10
54329;BME280;40710;51.120;13.136;2023-11-19T03:16:58;98911.09;;;8.03;70.23
54329;BME280;40710;51.120;13.136;2023-11-19T03:19:23;98898.47;;;8.46;69.33
54329;BME280;40710;51.120;13.136;2023-11-19T03:21:47;98901.06;;;7.94;70.29
54329;BME280;40710;51.120;13.136;2023-11-19T03:24:13;98879.50;;;8.41;69.21
54329;BME280;40710;51.120;13.136;2023-11-19T03:26:37;98866.28;;;8.27;70.02
54329;BME280;40710;51.120;13.136;2023-11-19T03:29:02;98860.63;;;7.84;70.20
54329;BME280;40710;51.120;13.136;2023-11-19T03:31:27;98851.16;;;8.49;68.61
54329;BME280;40710;51.120;13.136;2023-11-19T03:33:52;98826.47;;;9.03;68.01
54329;BME280;40710;51.120;13.136;2023-11-19T03:36:16;98841.94;;;8.25;69.97
54329;BME280;40710;51.120;13.136;2023-11-19T03:38:41;98828.16;;;8.88;67.85
54329;BME280;40710;51.120;13.136;2023-11-19T03:41:13;98833.88;;;8.63;67.75
54329;BME280;40710;51.120;13.136;2023-11-19T03:43:39;98830.16;;;8.67;68.90
54329;BME280;40710;51.120;13.136;2023-11-19T03:46:04;98830.69;;;8.89;68.22
54329;BME280;40710;51.120;13.136;2023-11-19T03:48:29;98823.56;;;9.23;65.81
54329;BME280;40710;51.120;13.136;2023-11-19T03:50:54;98837.97;;;9.16;67.28
54329;BME280;40710;51.120;13.136;2023-11-19T03:53:18;98829.78;;;8.91;68.02
54329;BME280;40710;51.120;13.136;2023-11-19T03:55:43;98815.69;;;9.23;68.05
54329;BME280;40710;51.120;13.136;2023-11-19T03:58:07;98834.09;;;8.42;69.73
54329;BME280;40710;51.120;13.136;2023-11-19T04:00:32;98826.41;;;8.22;71.06
54329;BME280;40710;51.120;13.136;2023-11-19T04:02:57;98832.81;;;8.16;71.91
54329;BME280;40710;51.120;13.136;2023-11-19T04:05:21;98825.59;;;8.37;71.30
54329;BME280;40710;51.120;13.136;2023-11-19T04:07:46;98824.38;;;8.27;72.22
54329;BME280;40710;51.120;13.136;2023-11-19T04:10:10;98809.97;;;7.85;74.26
54329;BME280;40710;51.120;13.136;2023-11-19T04:12:35;98809.00;;;7.87;73.46
54329;BME280;40710;51.120;13.136;2023-11-19T04:15:00;98811.03;;;8.16;74.03
54329;BME280;40710;51.120;13.136;2023-11-19T04:17:24;98805.75;;;8.50;72.66
54329;BME280;40710;51.120;13.136;2023-11-19T04:19:49;98790.19;;;8.79;71.22
54329;BME280;40710;51.120;13.136;2023-11-19T04:22:13;98779.78;;;8.46;71.90
54329;BME280;40710;51.120;13.136;2023-11-19T04:24:38;98793.28;;;8.38;73.24
54329;BME280;40710;51.120;13.136;2023-11-19T04:27:02;98796.94;;;8.01;73.91
54329;BME280;40710;51.120;13.136;2023-11-19T04:29:27;98803.78;;;8.21;74.07
54329;BME280;40710;51.120;13.136;2023-11-19T04:31:52;98791.72;;;8.67;72.47
54329;BME280;40710;51.120;13.136;2023-11-19T04:34:16;98792.81;;;8.63;73.00
54329;BME280;40710;51.120;13.136;2023-11-19T04:36:41;98782.34;;;8.79;72.60
54329;BME280;40710;51.120;13.136;2023-11-19T04:39:06;98781.50;;;8.63;72.50
54329;BME280;40710;51.120;13.136;2023-11-19T04:41:45;98782.09;;;8.52;73.76
54329;BME280;40710;51.120;13.136;2023-11-19T04:44:10;98767.13;;;8.86;72.93
54329;BME280;40710;51.120;13.136;2023-11-19T04:46:34;98770.53;;;8.23;73.68
54329;BME280;40710;51.120;13.136;2023-11-19T04:48:59;98769.88;;;8.35;74.47
54329;BME280;40710;51.120;13.136;2023-11-19T04:51:23;98763.16;;;8.47;73.82
54329;BME280;40710;51.120;13.136;2023-11-19T04:53:48;98745.31;;;9.01;71.52
54329;BME280;40710;51.120;13.136;2023-11-19T04:56:12;98749.63;;;8.86;72.85
54329;BME280;40710;51.120;13.136;2023-11-19T04:58:37;98741.28;;;9.26;72.11
54329;BME280;40710;51.120;13.136;2023-11-19T05:01:05;98744.88;;;9.09;72.83
54329;BME280;40710;51.120;13.136;2023-11-19T05:03:33;98749.53;;;9.04;72.52
54329;BME280;40710;51.120;13.136;2023-11-19T05:05:58;98740.91;;;9.02;72.02
54329;BME280;40710;51.120;13.136;2023-11-19T05:08:22;98737.22;;;8.42;74.41
54329;BME280;40710;51.120;13.136;2023-11-19T05:10:47;98731.91;;;8.60;74.73
54329;BME280;40710;51.120;13.136;2023-11-19T05:13:11;98741.78;;;8.55;75.29
54329;BME280;40710;51.120;13.136;2023-11-19T05:15:37;98727.19;;;9.43;71.82
54329;BME280;40710;51.120;13.136;2023-11-19T05:18:02;98737.66;;;8.50;74.91
54329;BME280;40710;51.120;13.136;2023-11-19T05:20:29;98729.38;;;9.04;73.05
54329;BME280;40710;51.120;13.136;2023-11-19T05:22:53;98735.50;;;9.05;74.84
54329;BME280;40710;51.120;13.136;2023-11-19T05:25:18;98724.59;;;8.97;73.60
54329;BME280;40710;51.120;13.136;2023-11-19T05:27:44;98710.53;;;9.14;73.74
54329;BME280;40710;51.120;13.136;2023-11-19T05:30:08;98693.09;;;9.13;74.05
54329;BME280;40710;51.120;13.136;2023-11-19T05:32:34;98680.00;;;10.29;70.52
54329;BME280;40710;51.120;13.136;2023-11-19T05:34:59;98683.56;;;9.56;72.07
54329;BME280;40710;51.120;13.136;2023-11-19T05:37:23;98689.94;;;10.10;70.85
54329;BME280;40710;51.120;13.136;2023-11-19T05:39:49;98676.53;;;10.14;70.25
54329;BME280;40710;51.120;13.136;2023-11-19T05:42:13;98675.00;;;10.25;70.92
54329;BME280;40710;51.120;13.136;2023-11-19T05:44:38;98670.63;;;10.67;69.31
54329;BME280;40710;51.120;13.136;2023-11-19T05:47:03;98679.03;;;10.30;70.92
54329;BME280;40710;51.120;13.136;2023-11-19T05:49:27;98658.25;;;11.22;67.37
54329;BME280;40710;51.120;13.136;2023-11-19T05:51:52;98638.56;;;11.14;67.31
54329;BME280;40710;51.120;13.136;2023-11-19T05:54:20;98643.50;;;10.25;69.94
54329;BME280;40710;51.120;13.136;2023-11-19T05:56:48;98658.28;;;9.84;72.79
54329;BME280;40710;51.120;13.136;2023-11-19T05:59:13;98648.28;;;10.32;71.14
54329;BME280;40710;51.120;13.136;2023-11-19T06:01:39;98620.25;;;11.00;69.81
54329;BME280;40710;51.120;13.136;2023-11-19T06:04:05;98614.34;;;10.15;71.04
54329;BME280;40710;51.120;13.136;2023-11-19T06:06:31;98623.31;;;10.25;71.96
54329;BME280;40710;51.120;13.136;2023-11-19T06:08:55;98655.06;;;9.50;73.78
54329;BME280;40710;51.120;13.136;2023-11-19T06:11:20;98620.78;;;11.05;70.49
54329;BME280;40710;51.120;13.136;2023-11-19T06:13:45;98661.06;;;9.95;72.69
54329;BME280;40710;51.120;13.136;2023-11-19T06:16:10;98641.88;;;10.51;72.37
54329;BME280;40710;51.120;13.136;2023-11-19T06:18:36;98631.84;;;10.70;71.85
54329;BME280;40710;51.120;13.136;2023-11-19T06:21:01;98643.59;;;10.37;72.09
54329;BME280;40710;51.120;13.136;2023-11-19T06:23:25;98628.81;;;10.22;72.40
54329;BME280;40710;51.120;13.136;2023-11-19T06:25:50;98611.84;;;10.95;70.99
54329;BME280;40710;51.120;13.136;2023-11-19T06:28:14;98635.38;;;10.00;72.59
54329;BME280;40710;51.120;13.136;2023-11-19T06:30:39;98634.03;;;10.36;72.54
54329;BME280;40710;51.120;13.136;2023-11-19T06:33:03;98647.00;;;10.11;73.56
54329;BME280;40710;51.120;13.136;2023-11-19T06:35:28;98645.72;;;10.72;72.47
54329;BME280;40710;51.120;13.136;2023-11-19T06:38:00;98632.75;;;10.84;71.91
54329;BME280;40710;51.120;13.136;2023-11-19T06:40:25;98631.41;;;11.16;71.31
54329;BME280;40710;51.120;13.136;2023-11-19T06:42:50;98628.78;;;10.64;71.75
54329;BME280;40710;51.120;13.136;2023-11-19T06:45:16;98642.91;;;10.75;71.73
54329;BME280;40710;51.120;13.136;2023-11-19T06:47:41;98646.81;;;10.83;71.88
54329;BME280;40710;51.120;13.136;2023-11-19T06:50:06;98651.72;;;11.14;72.39
54329;BME280;40710;51.120;13.136;2023-11-19T06:52:31;98631.56;;;11.66;69.53
54329;BME280;40710;51.120;13.136;2023-11-19T06:54:56;98639.34;;;11.55;69.15
54329;BME280;40710;51.120;13.136;2023-11-19T06:57:21;98629.41;;;12.10;67.39
54329;BME280;40710;51.120;13.136;2023-11-19T06:59:45;98646.28;;;11.30;69.59
54329;BME280;40710;51.120;13.136;2023-11-19T07:02:10;98648.81;;;11.83;68.88
54329;BME280;40710;51.120;13.136;2023-11-19T07:04:34;98642.78;;;11.81;68.34
54329;BME280;40710;51.120;13.136;2023-11-19T07:06:59;98649.84;;;11.81;68.02
54329;BME280;40710;51.120;13.136;2023-11-19T07:09:24;98666.47;;;12.20;67.60
54329;BME280;40710;51.120;13.136;2023-11-19T07:11:49;98671.94;;;11.27;69.16
54329;BME280;40710;51.120;13.136;2023-11-19T07:14:16;98669.00;;;11.83;68.97
54329;BME280;40710;51.120;13.136;2023-11-19T07:16:40;98659.66;;;11.91;68.30
54329;BME280;40710;51.120;13.136;2023-11-19T07:19:05;98656.38;;;11.49;68.76
54329;BME280;40710;51.120;13.136;2023-11-19T07:21:31;98660.94;;;11.73;67.95
54329;BME280;40710;51.120;13.136;2023-11-19T07:23:57;98659.69;;;11.66;67.92
54329;BME280;40710;51.120;13.136;2023-11-19T07:26:22;98641.09;;;12.67;66.09
54329;BME280;40710;51.120;13.136;2023-11-19T07:28:47;98639.53;;;12.03;66.96
54329;BME280;40710;51.120;13.136;2023-11-19T07:31:13;98633.81;;;12.09;67.87
54329;BME280;40710;51.120;13.136;2023-11-19T07:33:39;98616.88;;;12.86;65.38
54329;BME280;40710;51.120;13.136;2023-11-19T07:36:04;98618.56;;;12.02;67.95
54329;BME280;40710;51.120;13.136;2023-11-19T07:38:28;98628.19;;;12.27;67.56
54329;BME280;40710;51.120;13.136;2023-11-19T07:40:53;98643.50;;;12.46;66.93
54329;BME280;40710;51.120;13.136;2023-11-19T07:43:18;98646.22;;;13.17;64.33
54329;BME280;40710;51.120;13.136;2023-11-19T07:45:42;98645.63;;;12.17;66.51
54329;BME280;40710;51.120;13.136;2023-11-19T07:48:10;98662.84;;;12.34;66.84
54329;BME280;40710;51.120;13.136;2023-11-19T07:50:37;98653.03;;;12.36;66.47
54329;BME280;40710;51.120;13.136;2023-11-19T07:53:01;98650.31;;;12.61;65.79
54329;BME280;40710;51.120;13.136;2023-11-19T07:55:28;98644.38;;;12.46;66.45
54329;BME280;40710;51.120;13.136;2023-11-19T07:57:53;98654.59;;;11.76;67.13
54329;BME280;40710;51.120;13.136;2023-11-19T08:00:17;98636.13;;;12.75;65.50
54329;BME280;40710;51.120;13.136;2023-11-19T08:02:44;98631.63;;;13.24;63.82
54329;BME280;40710;51.120;13.136;2023-11-19T08:05:08;98657.41;;;12.24;66.59
54329;BME280;40710;51.120;13.136;2023-11-19T08:07:33;98659.53;;;11.29;69.89
54329;BME280;40710;51.120;13.136;2023-11-19T08:09:57;98659.84;;;11.88;67.86
54329;BME280;40710;51.120;13.136;2023-11-19T08:12:22;98662.09;;;11.82;69.06
54329;BME280;40710;51.120;13.136;2023-11-19T08:14:47;98661.66;;;11.62;69.52
54329;BME280;40710;51.120;13.136;2023-11-19T08:17:11;98683.88;;;11.45;69.83
54329;BME280;40710;51.120;13.136;2023-11-19T08:19:36;98678.16;;;11.26;70.71
54329;BME280;40710;51.120;13.136;2023-11-19T08:22:00;98669.88;;;11.96;69.62
54329;BME280;40710;51.120;13.136;2023-11-19T08:24:25;98686.28;;;11.61;70.63
54329;BME280;40710;51.120;13.136;2023-11-19T08:26:49;98683.03;;;11.45;71.67
54329;BME280;40710;51.120;13.136;2023-11-19T08:29:14;98701.56;;;11.69;72.28
54329;BME280;40710;51.120;13.136;2023-11-19T08:31:38;98681.47;;;11.68;72.24
54329;BME280;40710;51.120;13.136;2023-11-19T08:34:03;98692.81;;;11.56;71.92
54329;BME280;40710;51.120;13.136;2023-11-19T08:36:27;98690.28;;;11.54;71.82
54329;BME280;40710;51.120;13.136;2023-11-19T08:38:52;98694.28;;;11.60;72.18
54329;BME280;40710;51.120;13.136;2023-11-19T08:41:17;98692.06;;;12.18;69.50
54329;BME280;40710;51.120;13.136;2023-11-19T08:43:42;98685.69;;;11.83;70.27
54329;BME280;40710;51.120;13.136;2023-11-19T08:46:10;98691.56;;;11.74;71.17
54329;BME280;40710;51.120;13.136;2023-11-19T08:48:35;98699.16;;;11.91;71.01
54329;BME280;40710;51.120;13.136;2023-11-19T08:51:00;98704.31;;;11.80;70.55
54329;BME280;40710;51.120;13.136;2023-11-19T08:53:24;98692.56;;;12.36;69.69
54329;BME280;40710;51.120;13.136;2023-11-19T08:55:49;98699.78;;;11.69;71.12
54329;BME280;40710;51.120;13.136;2023-11-19T08:58:14;98690.41;;;11.78;70.83
54329;BME280;40710;51.120;13.136;2023-11-19T09:00:38;98697.56;;;12.02;70.18
54329;BME280;40710;51.120;13.136;2023-11-19T09:03:03;98702.47;;;12.45;68.52
54329;BME280;40710;51.120;13.136;2023-11-19T09:05:27;98710.81;;;11.62;70.56
54329;BME280;40710;51.120;13.136;2023-11-19T09:07:52;98700.41;;;12.12;70.21
54329;BME280;40710;51.120;13.136;2023-11-19T09:10:16;98685.03;;;12.79;67.34
54329;BME280;40710;51.120;13.136;2023-11-19T09:12:41;98683.72;;;13.45;65.71
54329;BME280;40710;51.120;13.136;2023-11-19T09:15:06;98670.19;;;13.14;66.00
54329;BME280;40710;51.120;13.136;2023-11-19T09:17:31;98680.66;;;12.67;67.38
54329;BME280;40710;51.120;13.136;2023-11-19T09:19:55;98682.00;;;12.73;67.16
54329;BME280;40710;51.120;13.136;2023-11-19T09:22:20;98693.00;;;12.91;67.17
54329;BME280;40710;51.120;13.136;2023-11-19T09:24:44;98682.44;;;13.15;65.86
54329;BME280;40710;51.120;13.136;2023-11-19T09:27:09;98690.97;;;13.65;65.62
54329;BME280;40710;51.120;13.136;2023-11-19T09:29:34;98690.63;;;13.70;64.75
54329;BME280;40710;51.120;13.136;2023-11-19T09:31:58;98687.88;;;13.71;64.10
54329;BME280;40710;51.120;13.136;2023-11-19T09:34:23;98691.84;;;13.77;64.29
54329;BME280;40710;51.120;13.136;2023-11-19T09:36:47;98692.13;;;13.38;65.32
54329;BME280;40710;51.120;13.136;2023-11-19T09:39:12;98669.81;;;14.67;61.75
54329;BME280;40710;51.120;13.136;2023-11-19T09:41:39;98653.53;;;15.36;58.59
54329;BME280;40710;51.120;13.136;2023-11-19T09:44:04;98673.69;;;14.40;61.40
54329;BME280;40710;51.120;13.136;2023-11-19T09:46:30;98652.34;;;15.71;59.06
54329;BME280;40710;51.120;13.136;2023-11-19T09:48:57;98663.09;;;14.63;61.27
54329;BME280;40710;51.120;13.136;2023-11-19T09:51:22;98664.25;;;15.56;59.71
54329;BME280;40710;51.120;13.136;2023-11-19T09:53:46;98679.50;;;14.11;63.04
54329;BME280;40710;51.120;13.136;2023-11-19T09:56:12;98686.47;;;14.24;63.01
54329;BME280;40710;51.120;13.136;2023-11-19T09:58:37;98676.69;;;14.58;62.36
54329;BME280;40710;51.120;13.136;2023-11-19T10:01:01;98674.56;;;14.96;60.41
54329;BME280;40710;51.120;13.136;2023-11-19T10:03:34;98688.38;;;14.33;62.65
54329;BME280;40710;51.120;13.136;2023-11-19T10:06:02;98692.56;;;14.58;62.82
54329;BME280;40710;51.120;13.136;2023-11-19T10:08:27;98668.06;;;15.21;60.58
54329;BME280;40710;51.120;13.136;2023-11-19T10:10:51;98680.75;;;14.51;62.13
54329;BME280;40710;51.120;13.136;2023-11-19T10:13:16;98683.69;;;14.91;61.20
54329;BME280;40710;51.120;13.136;2023-11-19T10:15:41;98676.78;;;14.56;62.03
54329;BME280;40710;51.120;13.136;2023-11-19T10:18:05;98682.56;;;14.39;62.90
54329;BME280;40710;51.120;13.136;2023-11-19T10:20:37;98683.81;;;14.24;63.68
54329;BME280;40710;51.120;13.136;2023-11-19T10:23:01;98678.75;;;14.43;62.51
54329;BME280;40710;51.120;13.136;2023-11-19T10:25:28;98683.81;;;14.24;63.69
54329;BME280;40710;51.120;13.136;2023-11-19T10:27:54;98671.69;;;13.87;64.64
54329;BME280;40710;51.120;13.136;2023-11-19T10:30:23;98672.50;;;14.33;63.75
54329;BME280;40710;51.120;13.136;2023-11-19T10:33:10;98669.78;;;13.78;64.78
54329;BME280;40710;51.120;13.136;2023-11-19T10:35:53;98674.06;;;14.35;63.49
54329;BME280;40710;51.120;13.136;2023-11-19T10:38:18;98672.66;;;13.97;65.46
54329;BME280;40710;51.120;13.136;2023-11-19T10:40:43;98669.78;;;13.89;65.76
54329;BME280;40710;51.120;13.136;2023-11-19T10:43:09;98671.50;;;14.68;62.80
54329;BME280;40710;51.120;13.136;2023-11-19T10:45:34;98655.25;;;15.05;62.03
54329;BME280;40710;51.120;13.136;2023-11-19T10:47:59;98654.34;;;14.94;62.43
54329;BME280;40710;51.120;13.136;2023-11-19T10:50:24;98641.25;;;15.56;61.08
54329;BME280;40710;51.120;13.136;2023-11-19T10:52:55;98645.66;;;14.71;62.88
54329;BME280;40710;51.120;13.136;2023-11-19T10:55:27;98651.81;;;14.49;63.08
54329;BME280;40710;51.120;13.136;2023-11-19T10:57:59;98644.72;;;14.61;62.55
54329;BME280;40710;51.120;13.136;2023-11-19T11:00:25;98627.38;;;15.43;62.02
54329;BME280;40710;51.120;13.136;2023-11-19T11:02:55;98642.34;;;15.54;60.53
54329;BME280;40710;51.120;13.136;2023-11-19T11:05:22;98641.22;;;15.46;60.65
54329;BME280;40710;51.120;13.136;2023-11-19T11:07:46;98633.69;;;14.88;61.98
54329;BME280;40710;51.120;13.136;2023-11-19T11:10:14;98632.53;;;15.23;61.74
54329;BME280;40710;51.120;13.136;2023-11-19T11:12:41;98622.69;;;15.56;59.64
54329;BME280;40710;51.120;13.136;2023-11-19T11:15:07;98637.53;;;14.84;61.90
54329;BME280;40710;51.120;13.136;2023-11-19T11:17:33;98646.41;;;14.94;61.43
54329;BME280;40710;51.120;13.136;2023-11-19T11:19:58;98639.59;;;15.13;61.32
54329;BME280;40710;51.120;13.136;2023-11-19T11:22:27;98622.53;;;16.70;57.30
54329;BME280;40710;51.120;13.136;2023-11-19T11:28:12;98589.97;;;16.38;57.95
54329;BME280;40710;51.120;13.136;2023-11-19T11:30:51;98598.94;;;15.66;58.85
54329;BME280;40710;51.120;13.136;2023-11-19T11:33:39;98579.78;;;16.82;56.60
54329;BME280;40710;51.120;13.136;2023-11-19T11:36:22;98576.19;;;17.50;54.43
54329;BME280;40710;51.120;13.136;2023-11-19T11:38:50;98565.34;;;18.81;51.98
54329;BME280;40710;51.120;13.136;2023-11-19T11:41:22;98576.47;;;17.57;53.49
54329;BME280;40710;51.120;13.136;2023-11-19T11:43:52;98584.72;;;17.44;53.51
54329;BME280;40710;51.120;13.136;2023-11-19T11:48:58;98582.56;;;19.04;50.09
54329;BME280;40710;51.120;13.136;2023-11-19T11:54:07;98575.53;;;19.03;48.78
54329;BME280;40710;51.120;13.136;2023-11-19T11:56:39;98587.50;;;18.81;49.73
54329;BME280;40710;51.120;13.136;2023-11-19T11:59:19;98588.44;;;18.90;49.39
54329;BME280;40710;51.120;13.136;2023-11-19T12:01:59;98557.59;;;21.09;46.13
54329;BME280;40710;51.120;13.136;2023-11-19T12:04:28;98560.72;;;21.53;44.60
54329;BME280;40710;51.120;13.136;2023-11-19T12:09:27;98589.19;;;19.79;47.24
54329;BME280;40710;51.120;13.136;2023-11-19T12:12:07;98572.84;;;19.48;47.93
54329;BME280;40710;51.120;13.136;2023-11-19T12:17:48;98577.31;;;18.41;48.29
54329;BME280;40710;51.120;13.136;2023-11-19T12:20:13;98567.09;;;19.87;47.74
54329;BME280;40710;51.120;13.136;2023-11-19T12:22:39;98560.84;;;19.43;47.58
54329;BME280;40710;51.120;13.136;2023-11-19T12:25:08;98549.41;;;20.45;45.74
54329;BME280;40710;51.120;13.136;2023-11-19T12:27:33;98545.22;;;20.42;45.24
54329;BME280;40710;51.120;13.136;2023-11-19T12:30:01;98548.19;;;20.14;45.53
54329;BME280;40710;51.120;13.136;2023-11-19T12:32:37;98547.88;;;20.34;44.65
54329;BME280;40710;51.120;13.136;2023-11-19T12:35:02;98551.25;;;20.44;45.46
54329;BME280;40710;51.120;13.136;2023-11-19T12:37:27;98547.25;;;20.65;44.73
54329;BME280;40710;51.120;13.136;2023-11-19T12:39:53;98555.88;;;20.42;44.66
54329;BME280;40710;51.120;13.136;2023-11-19T12:42:18;98550.66;;;19.73;45.04
54329;BME280;40710;51.120;13.136;2023-11-19T12:44:55;98549.72;;;19.56;45.34
54329;BME280;40710;51.120;13.136;2023-11-19T12:47:20;98539.41;;;19.88;44.87
54329;BME280;40710;51.120;13.136;2023-11-19T12:49:55;98543.72;;;19.20;45.70
54329;BME280;40710;51.120;13.136;2023-11-19T12:52:19;98543.03;;;19.78;44.30
54329;BME280;40710;51.120;13.136;2023-11-19T12:54:44;98557.81;;;19.38;44.89
54329;BME280;40710;51.120;13.136;2023-11-19T12:57:09;98541.84;;;20.24;43.97
54329;BME280;40710;51.120;13.136;2023-11-19T12:59:33;98553.50;;;18.93;45.05
54329;BME280;40710;51.120;13.136;2023-11-19T13:01:58;98557.38;;;18.45;45.90